sensor_id;sensor_type;location;lat;lon;timestamp;P1;durP1;ratioP1;P2;durP2;ratioP2
28311;SDS011;15572;48.810;9.148;2024-02-16T00:01:20;5.90;;;3.37;;
28311;SDS011;15572;48.810;9.148;2024-02-16T00:06:17;6.33;;;4.27;;
28311;SDS011;15572;48.810;9.148;2024-02-16T00:11:14;9.40;;;4.77;;
28311;SDS011;15572;48.810;9.148;2024-02-16T00:16:10;7.87;;;4.43;;
28311;SDS011;15572;48.810;9.148;2024-02-16T00:21:06;6.63;;;4.23;;
28311;SDS011;15572;48.810;9.148;2024-02-16T00:26:05;8.57;;;4.53;;
28311;SDS011;15572;48.810;9.148;2024-02-16T00:31:02;6.87;;;4.97;;
28311;SDS011;15572;48.810;9.148;2024-02-16T00:36:00;5.90;;;4.20;;
28311;SDS011;15572;48.810;9.148;2024-02-16T00:40:57;7.37;;;4.43;;
28311;SDS011;15572;48.810;9.148;2024-02-16T00:45:55;5.57;;;3.93;;
28311;SDS011;15572;48.810;9.148;2024-02-16T00:50:51;7.43;;;4.23;;
28311;SDS011;15572;48.810;9.148;2024-02-16T00:55:48;5.00;;;3.67;;
28311;SDS011;15572;48.810;9.148;2024-02-16T01:00:44;7.67;;;4.40;;
28311;SDS011;15572;48.810;9.148;2024-02-16T01:05:42;8.13;;;4.90;;
28311;SDS011;15572;48.810;9.148;2024-02-16T01:10:38;8.30;;;4.77;;
28311;SDS011;15572;48.810;9.148;2024-02-16T01:15:35;10.50;;;5.00;;
28311;SDS011;15572;48.810;9.148;2024-02-16T01:20:32;11.17;;;5.73;;
28311;SDS011;15572;48.810;9.148;2024-02-16T01:25:29;11.67;;;5.37;;
28311;SDS011;15572;48.810;9.148;2024-02-16T01:30:26;8.83;;;5.30;;
28311;SDS011;15572;48.810;9.148;2024-02-16T01:35:22;8.53;;;5.10;;
28311;SDS011;15572;48.810;9.148;2024-02-16T01:40:19;11.20;;;5.53;;
28311;SDS011;15572;48.810;9.148;2024-02-16T01:45:16;9.93;;;4.90;;
28311;SDS011;15572;48.810;9.148;2024-02-16T01:50:13;10.00;;;5.17;;
28311;SDS011;15572;48.810;9.148;2024-02-16T01:55:10;7.80;;;5.10;;
28311;SDS011;15572;48.810;9.148;2024-02-16T02:00:08;9.37;;;4.30;;
28311;SDS011;15572;48.810;9.148;2024-02-16T02:05:06;6.77;;;4.90;;
28311;SDS011;15572;48.810;9.148;2024-02-16T02:10:04;8.50;;;4.97;;
28311;SDS011;15572;48.810;9.148;2024-02-16T02:15:00;6.70;;;4.37;;
28311;SDS011;15572;48.810;9.148;2024-02-16T02:19:58;8.00;;;4.80;;
28311;SDS011;15572;48.810;9.148;2024-02-16T02:24:56;8.70;;;4.63;;
28311;SDS011;15572;48.810;9.148;2024-02-16T02:29:52;9.57;;;5.17;;
28311;SDS011;15572;48.810;9.148;2024-02-16T02:34:48;9.40;;;5.60;;
28311;SDS011;15572;48.810;9.148;2024-02-16T02:39:45;8.10;;;4.63;;
28311;SDS011;15572;48.810;9.148;2024-02-16T02:44:44;8.23;;;5.10;;
28311;SDS011;15572;48.810;9.148;2024-02-16T02:49:45;10.23;;;5.40;;
28311;SDS011;15572;48.810;9.148;2024-02-16T02:54:41;6.33;;;4.67;;
28311;SDS011;15572;48.810;9.148;2024-02-16T02:59:37;9.83;;;4.93;;
28311;SDS011;15572;48.810;9.148;2024-02-16T03:04:35;8.80;;;5.00;;
28311;SDS011;15572;48.810;9.148;2024-02-16T03:09:32;5.97;;;4.50;;
28311;SDS011;15572;48.810;9.148;2024-02-16T03:14:28;7.27;;;4.73;;
28311;SDS011;15572;48.810;9.148;2024-02-16T03:19:25;7.13;;;4.90;;
28311;SDS011;15572;48.810;9.148;2024-02-16T03:24:22;7.87;;;4.80;;
28311;SDS011;15572;48.810;9.148;2024-02-16T03:29:19;7.00;;;4.43;;
28311;SDS011;15572;48.810;9.148;2024-02-16T03:34:15;8.43;;;4.93;;
28311;SDS011;15572;48.810;9.148;2024-02-16T03:39:12;10.10;;;5.00;;
28311;SDS011;15572;48.810;9.148;2024-02-16T03:44:09;8.53;;;5.00;;
28311;SDS011;15572;48.810;9.148;2024-02-16T03:49:06;8.53;;;6.10;;
28311;SDS011;15572;48.810;9.148;2024-02-16T03:54:02;9.33;;;5.50;;
28311;SDS011;15572;48.810;9.148;2024-02-16T03:59:00;8.67;;;5.23;;
28311;SDS011;15572;48.810;9.148;2024-02-16T04:03:57;7.10;;;4.80;;
28311;SDS011;15572;48.810;9.148;2024-02-16T04:08:54;7.73;;;5.20;;
28311;SDS011;15572;48.810;9.148;2024-02-16T04:13:51;8.27;;;4.80;;
28311;SDS011;15572;48.810;9.148;2024-02-16T04:18:47;7.83;;;4.63;;
28311;SDS011;15572;48.810;9.148;2024-02-16T04:23:45;7.93;;;4.37;;
28311;SDS011;15572;48.810;9.148;2024-02-16T04:28:41;6.80;;;4.50;;
28311;SDS011;15572;48.810;9.148;2024-02-16T04:33:38;7.97;;;4.57;;
28311;SDS011;15572;48.810;9.148;2024-02-16T04:38:34;6.80;;;4.80;;
28311;SDS011;15572;48.810;9.148;2024-02-16T04:43:32;9.53;;;5.13;;
28311;SDS011;15572;48.810;9.148;2024-02-16T04:48:28;8.20;;;4.77;;
28311;SDS011;15572;48.810;9.148;2024-02-16T04:53:26;7.63;;;4.80;;
28311;SDS011;15572;48.810;9.148;2024-02-16T04:58:22;9.47;;;5.30;;
28311;SDS011;15572;48.810;9.148;2024-02-16T05:03:20;8.30;;;5.27;;
28311;SDS011;15572;48.810;9.148;2024-02-16T05:08:16;7.43;;;5.17;;
28311;SDS011;15572;48.810;9.148;2024-02-16T05:13:13;11.33;;;5.80;;
28311;SDS011;15572;48.810;9.148;2024-02-16T05:18:09;9.17;;;5.47;;
28311;SDS011;15572;48.810;9.148;2024-02-16T05:23:08;9.83;;;6.07;;
28311;SDS011;15572;48.810;9.148;2024-02-16T05:28:05;9.03;;;5.90;;
28311;SDS011;15572;48.810;9.148;2024-02-16T05:33:02;10.53;;;6.17;;
28311;SDS011;15572;48.810;9.148;2024-02-16T05:37:59;10.23;;;5.97;;
28311;SDS011;15572;48.810;9.148;2024-02-16T05:43:03;8.47;;;5.47;;
28311;SDS011;15572;48.810;9.148;2024-02-16T05:47:59;9.23;;;5.87;;
28311;SDS011;15572;48.810;9.148;2024-02-16T05:52:56;10.63;;;5.53;;
28311;SDS011;15572;48.810;9.148;2024-02-16T05:57:52;8.83;;;5.90;;
28311;SDS011;15572;48.810;9.148;2024-02-16T06:02:51;8.77;;;5.97;;
28311;SDS011;15572;48.810;9.148;2024-02-16T06:07:47;11.33;;;5.70;;
28311;SDS011;15572;48.810;9.148;2024-02-16T06:12:43;10.00;;;5.70;;
28311;SDS011;15572;48.810;9.148;2024-02-16T06:17:40;11.93;;;5.97;;
28311;SDS011;15572;48.810;9.148;2024-02-16T06:22:38;11.13;;;5.57;;
28311;SDS011;15572;48.810;9.148;2024-02-16T06:27:34;9.50;;;5.57;;
28311;SDS011;15572;48.810;9.148;2024-02-16T06:32:31;11.00;;;5.93;;
28311;SDS011;15572;48.810;9.148;2024-02-16T06:37:27;12.97;;;6.87;;
28311;SDS011;15572;48.810;9.148;2024-02-16T06:42:25;10.00;;;6.37;;
28311;SDS011;15572;48.810;9.148;2024-02-16T06:47:21;11.07;;;6.47;;
28311;SDS011;15572;48.810;9.148;2024-02-16T06:52:18;8.00;;;5.50;;
28311;SDS011;15572;48.810;9.148;2024-02-16T06:57:15;7.83;;;5.27;;
28311;SDS011;15572;48.810;9.148;2024-02-16T07:02:13;9.43;;;5.73;;
28311;SDS011;15572;48.810;9.148;2024-02-16T07:07:11;10.50;;;6.10;;
28311;SDS011;15572;48.810;9.148;2024-02-16T07:12:07;8.43;;;5.10;;
28311;SDS011;15572;48.810;9.148;2024-02-16T07:17:04;8.63;;;5.50;;
28311;SDS011;15572;48.810;9.148;2024-02-16T07:22:05;12.93;;;6.90;;
28311;SDS011;15572;48.810;9.148;2024-02-16T07:27:02;16.87;;;7.20;;
28311;SDS011;15572;48.810;9.148;2024-02-16T07:31:59;9.00;;;4.83;;
28311;SDS011;15572;48.810;9.148;2024-02-16T07:36:55;8.07;;;4.93;;
28311;SDS011;15572;48.810;9.148;2024-02-16T07:41:53;8.63;;;5.23;;
28311;SDS011;15572;48.810;9.148;2024-02-16T07:46:49;10.80;;;6.30;;
28311;SDS011;15572;48.810;9.148;2024-02-16T07:51:47;14.33;;;7.00;;
28311;SDS011;15572;48.810;9.148;2024-02-16T07:56:43;14.30;;;7.40;;
28311;SDS011;15572;48.810;9.148;2024-02-16T08:01:42;18.20;;;7.53;;
28311;SDS011;15572;48.810;9.148;2024-02-16T08:06:39;13.63;;;7.67;;
28311;SDS011;15572;48.810;9.148;2024-02-16T08:11:35;13.93;;;6.70;;
28311;SDS011;15572;48.810;9.148;2024-02-16T08:16:32;13.10;;;7.70;;
28311;SDS011;15572;48.810;9.148;2024-02-16T08:21:30;12.73;;;7.07;;
28311;SDS011;15572;48.810;9.148;2024-02-16T08:26:26;12.20;;;6.67;;
28311;SDS011;15572;48.810;9.148;2024-02-16T08:31:23;11.27;;;6.87;;
28311;SDS011;15572;48.810;9.148;2024-02-16T08:36:19;10.17;;;6.70;;
28311;SDS011;15572;48.810;9.148;2024-02-16T08:41:24;12.87;;;6.43;;
28311;SDS011;15572;48.810;9.148;2024-02-16T08:46:21;8.60;;;5.80;;
28311;SDS011;15572;48.810;9.148;2024-02-16T08:51:18;7.73;;;5.73;;
28311;SDS011;15572;48.810;9.148;2024-02-16T08:56:15;8.43;;;5.57;;
28311;SDS011;15572;48.810;9.148;2024-02-16T09:01:12;9.67;;;5.73;;
28311;SDS011;15572;48.810;9.148;2024-02-16T09:06:10;6.63;;;4.10;;
28311;SDS011;15572;48.810;9.148;2024-02-16T09:11:08;7.43;;;4.83;;
28311;SDS011;15572;48.810;9.148;2024-02-16T09:16:04;7.23;;;4.70;;
28311;SDS011;15572;48.810;9.148;2024-02-16T09:21:02;6.47;;;3.90;;
28311;SDS011;15572;48.810;9.148;2024-02-16T09:25:59;7.80;;;3.70;;
28311;SDS011;15572;48.810;9.148;2024-02-16T09:30:55;5.80;;;3.80;;
28311;SDS011;15572;48.810;9.148;2024-02-16T09:35:52;5.97;;;3.90;;
28311;SDS011;15572;48.810;9.148;2024-02-16T09:40:50;8.87;;;4.67;;
28311;SDS011;15572;48.810;9.148;2024-02-16T09:45:47;9.60;;;5.00;;
28311;SDS011;15572;48.810;9.148;2024-02-16T09:50:43;7.20;;;4.67;;
28311;SDS011;15572;48.810;9.148;2024-02-16T09:55:41;9.00;;;4.60;;
28311;SDS011;15572;48.810;9.148;2024-02-16T10:00:40;8.30;;;4.57;;
28311;SDS011;15572;48.810;9.148;2024-02-16T10:05:36;5.83;;;4.00;;
28311;SDS011;15572;48.810;9.148;2024-02-16T10:10:33;4.67;;;3.40;;
28311;SDS011;15572;48.810;9.148;2024-02-16T10:15:32;7.63;;;4.20;;
28311;SDS011;15572;48.810;9.148;2024-02-16T10:20:31;5.60;;;2.50;;
28311;SDS011;15572;48.810;9.148;2024-02-16T10:25:28;4.27;;;2.20;;
28311;SDS011;15572;48.810;9.148;2024-02-16T10:30:25;4.03;;;2.10;;
28311;SDS011;15572;48.810;9.148;2024-02-16T10:35:25;3.60;;;2.10;;
28311;SDS011;15572;48.810;9.148;2024-02-16T10:40:23;3.10;;;2.13;;
28311;SDS011;15572;48.810;9.148;2024-02-16T10:45:21;2.87;;;1.83;;
28311;SDS011;15572;48.810;9.148;2024-02-16T10:50:17;5.33;;;1.80;;
28311;SDS011;15572;48.810;9.148;2024-02-16T10:55:14;3.03;;;1.70;;
28311;SDS011;15572;48.810;9.148;2024-02-16T11:00:13;2.73;;;1.63;;
28311;SDS011;15572;48.810;9.148;2024-02-16T11:05:12;2.77;;;1.77;;
28311;SDS011;15572;48.810;9.148;2024-02-16T11:10:11;2.63;;;1.80;;
28311;SDS011;15572;48.810;9.148;2024-02-16T11:15:08;10.43;;;1.90;;
28311;SDS011;15572;48.810;9.148;2024-02-16T11:20:07;3.03;;;1.87;;
28311;SDS011;15572;48.810;9.148;2024-02-16T11:25:04;3.87;;;1.60;;
28311;SDS011;15572;48.810;9.148;2024-02-16T11:30:02;3.17;;;1.70;;
28311;SDS011;15572;48.810;9.148;2024-02-16T11:35:04;3.30;;;1.93;;
28311;SDS011;15572;48.810;9.148;2024-02-16T11:40:03;3.53;;;1.80;;
28311;SDS011;15572;48.810;9.148;2024-02-16T11:45:03;3.23;;;1.87;;
28311;SDS011;15572;48.810;9.148;2024-02-16T11:50:01;5.00;;;2.10;;
28311;SDS011;15572;48.810;9.148;2024-02-16T11:55:00;8.47;;;2.10;;
28311;SDS011;15572;48.810;9.148;2024-02-16T11:59:58;4.77;;;2.23;;
28311;SDS011;15572;48.810;9.148;2024-02-16T12:04:59;4.50;;;1.70;;
28311;SDS011;15572;48.810;9.148;2024-02-16T12:09:56;2.70;;;1.70;;
28311;SDS011;15572;48.810;9.148;2024-02-16T12:14:55;2.53;;;2.00;;
28311;SDS011;15572;48.810;9.148;2024-02-16T12:19:52;5.63;;;2.07;;
28311;SDS011;15572;48.810;9.148;2024-02-16T12:24:48;4.50;;;2.10;;
28311;SDS011;15572;48.810;9.148;2024-02-16T12:29:46;4.55;;;2.40;;
28311;SDS011;15572;48.810;9.148;2024-02-16T12:34:43;5.43;;;2.60;;
28311;SDS011;15572;48.810;9.148;2024-02-16T12:39:40;4.57;;;2.27;;
28311;SDS011;15572;48.810;9.148;2024-02-16T12:44:36;7.20;;;3.00;;
28311;SDS011;15572;48.810;9.148;2024-02-16T12:49:33;4.57;;;2.97;;
28311;SDS011;15572;48.810;9.148;2024-02-16T12:54:32;3.77;;;2.33;;
28311;SDS011;15572;48.810;9.148;2024-02-16T12:59:29;8.27;;;2.50;;
28311;SDS011;15572;48.810;9.148;2024-02-16T13:04:26;6.37;;;2.70;;
28311;SDS011;15572;48.810;9.148;2024-02-16T13:09:26;7.47;;;2.80;;
28311;SDS011;15572;48.810;9.148;2024-02-16T13:14:24;8.60;;;2.77;;
28311;SDS011;15572;48.810;9.148;2024-02-16T13:19:22;5.63;;;2.30;;
28311;SDS011;15572;48.810;9.148;2024-02-16T13:24:19;3.67;;;1.90;;
28311;SDS011;15572;48.810;9.148;2024-02-16T13:29:15;6.77;;;2.20;;
28311;SDS011;15572;48.810;9.148;2024-02-16T13:34:13;5.80;;;2.40;;
28311;SDS011;15572;48.810;9.148;2024-02-16T13:39:09;5.60;;;2.50;;
28311;SDS011;15572;48.810;9.148;2024-02-16T13:44:06;4.70;;;2.40;;
28311;SDS011;15572;48.810;9.148;2024-02-16T13:49:03;6.18;;;2.22;;
28311;SDS011;15572;48.810;9.148;2024-02-16T13:54:00;6.47;;;2.20;;
28311;SDS011;15572;48.810;9.148;2024-02-16T13:58:57;9.77;;;2.50;;
28311;SDS011;15572;48.810;9.148;2024-02-16T14:03:54;6.83;;;2.63;;
28311;SDS011;15572;48.810;9.148;2024-02-16T14:08:51;8.13;;;2.40;;
28311;SDS011;15572;48.810;9.148;2024-02-16T14:13:49;8.80;;;2.17;;
28311;SDS011;15572;48.810;9.148;2024-02-16T14:18:45;8.93;;;2.13;;
28311;SDS011;15572;48.810;9.148;2024-02-16T14:23:43;4.80;;;2.20;;
28311;SDS011;15572;48.810;9.148;2024-02-16T14:28:39;7.07;;;2.60;;
28311;SDS011;15572;48.810;9.148;2024-02-16T14:33:37;8.27;;;2.37;;
28311;SDS011;15572;48.810;9.148;2024-02-16T14:38:34;6.13;;;2.27;;
28311;SDS011;15572;48.810;9.148;2024-02-16T14:43:30;5.47;;;2.00;;
28311;SDS011;15572;48.810;9.148;2024-02-16T14:48:26;6.97;;;2.00;;
28311;SDS011;15572;48.810;9.148;2024-02-16T14:53:24;6.30;;;2.23;;
28311;SDS011;15572;48.810;9.148;2024-02-16T14:58:21;7.80;;;1.90;;
28311;SDS011;15572;48.810;9.148;2024-02-16T15:03:17;7.80;;;2.10;;
28311;SDS011;15572;48.810;9.148;2024-02-16T15:08:14;5.87;;;2.10;;
28311;SDS011;15572;48.810;9.148;2024-02-16T15:13:12;4.53;;;1.63;;
28311;SDS011;15572;48.810;9.148;2024-02-16T15:18:08;6.03;;;1.90;;
28311;SDS011;15572;48.810;9.148;2024-02-16T15:23:05;4.57;;;1.63;;
28311;SDS011;15572;48.810;9.148;2024-02-16T15:28:01;5.40;;;1.57;;
28311;SDS011;15572;48.810;9.148;2024-02-16T15:33:01;5.17;;;1.73;;
28311;SDS011;15572;48.810;9.148;2024-02-16T15:37:57;4.13;;;1.50;;
28311;SDS011;15572;48.810;9.148;2024-02-16T15:43:00;2.60;;;1.33;;
28311;SDS011;15572;48.810;9.148;2024-02-16T15:47:57;4.33;;;1.80;;
28311;SDS011;15572;48.810;9.148;2024-02-16T15:52:55;4.37;;;1.80;;
28311;SDS011;15572;48.810;9.148;2024-02-16T15:57:51;4.73;;;1.60;;
28311;SDS011;15572;48.810;9.148;2024-02-16T16:02:48;3.97;;;1.60;;
28311;SDS011;15572;48.810;9.148;2024-02-16T16:07:45;4.97;;;1.47;;
28311;SDS011;15572;48.810;9.148;2024-02-16T16:12:43;4.27;;;1.63;;
28311;SDS011;15572;48.810;9.148;2024-02-16T16:17:39;4.03;;;1.60;;
28311;SDS011;15572;48.810;9.148;2024-02-16T16:22:36;6.00;;;2.20;;
28311;SDS011;15572;48.810;9.148;2024-02-16T16:27:32;4.63;;;1.90;;
28311;SDS011;15572;48.810;9.148;2024-02-16T16:32:30;4.60;;;2.10;;
28311;SDS011;15572;48.810;9.148;2024-02-16T16:37:26;7.77;;;3.10;;
28311;SDS011;15572;48.810;9.148;2024-02-16T16:42:23;7.53;;;2.73;;
28311;SDS011;15572;48.810;9.148;2024-02-16T16:47:19;5.53;;;2.93;;
28311;SDS011;15572;48.810;9.148;2024-02-16T16:52:17;7.33;;;3.20;;
28311;SDS011;15572;48.810;9.148;2024-02-16T16:57:13;6.10;;;3.33;;
28311;SDS011;15572;48.810;9.148;2024-02-16T17:02:12;5.50;;;2.80;;
28311;SDS011;15572;48.810;9.148;2024-02-16T17:07:09;7.97;;;2.80;;
28311;SDS011;15572;48.810;9.148;2024-02-16T17:12:07;6.23;;;3.90;;
28311;SDS011;15572;48.810;9.148;2024-02-16T17:17:04;8.00;;;3.57;;
28311;SDS011;15572;48.810;9.148;2024-02-16T17:22:00;6.30;;;2.70;;
28311;SDS011;15572;48.810;9.148;2024-02-16T17:26:58;6.03;;;3.03;;
28311;SDS011;15572;48.810;9.148;2024-02-16T17:31:56;10.27;;;3.37;;
28311;SDS011;15572;48.810;9.148;2024-02-16T17:36:52;7.70;;;4.13;;
28311;SDS011;15572;48.810;9.148;2024-02-16T17:41:49;12.63;;;4.87;;
28311;SDS011;15572;48.810;9.148;2024-02-16T17:46:45;11.30;;;4.90;;
28311;SDS011;15572;48.810;9.148;2024-02-16T17:51:43;10.10;;;5.10;;
28311;SDS011;15572;48.810;9.148;2024-02-16T17:56:39;11.67;;;5.20;;
28311;SDS011;15572;48.810;9.148;2024-02-16T18:01:36;7.33;;;3.50;;
28311;SDS011;15572;48.810;9.148;2024-02-16T18:06:36;5.83;;;3.07;;
28311;SDS011;15572;48.810;9.148;2024-02-16T18:11:38;6.53;;;3.93;;
28311;SDS011;15572;48.810;9.148;2024-02-16T18:16:34;8.17;;;3.53;;
28311;SDS011;15572;48.810;9.148;2024-02-16T18:21:31;5.60;;;3.43;;
28311;SDS011;15572;48.810;9.148;2024-02-16T18:26:27;7.87;;;3.70;;
28311;SDS011;15572;48.810;9.148;2024-02-16T18:31:27;10.33;;;4.10;;
28311;SDS011;15572;48.810;9.148;2024-02-16T18:36:25;6.13;;;3.93;;
28311;SDS011;15572;48.810;9.148;2024-02-16T18:41:22;10.13;;;3.97;;
28311;SDS011;15572;48.810;9.148;2024-02-16T18:46:18;6.80;;;3.80;;
28311;SDS011;15572;48.810;9.148;2024-02-16T18:51:16;7.07;;;3.90;;
28311;SDS011;15572;48.810;9.148;2024-02-16T18:56:14;9.40;;;4.03;;
28311;SDS011;15572;48.810;9.148;2024-02-16T19:01:10;9.20;;;4.10;;
28311;SDS011;15572;48.810;9.148;2024-02-16T19:06:07;7.27;;;3.43;;
28311;SDS011;15572;48.810;9.148;2024-02-16T19:11:05;7.67;;;3.70;;
28311;SDS011;15572;48.810;9.148;2024-02-16T19:16:01;8.20;;;3.90;;
28311;SDS011;15572;48.810;9.148;2024-02-16T19:20:59;7.60;;;4.00;;
28311;SDS011;15572;48.810;9.148;2024-02-16T19:25:55;7.93;;;4.60;;
28311;SDS011;15572;48.810;9.148;2024-02-16T19:30:53;10.53;;;5.17;;
28311;SDS011;15572;48.810;9.148;2024-02-16T19:35:49;8.70;;;4.60;;
28311;SDS011;15572;48.810;9.148;2024-02-16T19:40:47;9.10;;;5.10;;
28311;SDS011;15572;48.810;9.148;2024-02-16T19:45:43;8.50;;;5.40;;
28311;SDS011;15572;48.810;9.148;2024-02-16T19:50:42;8.73;;;5.07;;
28311;SDS011;15572;48.810;9.148;2024-02-16T19:55:39;9.50;;;5.20;;
28311;SDS011;15572;48.810;9.148;2024-02-16T20:00:35;9.40;;;7.10;;
28311;SDS011;15572;48.810;9.148;2024-02-16T20:05:32;14.27;;;8.37;;
28311;SDS011;15572;48.810;9.148;2024-02-16T20:10:30;12.57;;;6.43;;
28311;SDS011;15572;48.810;9.148;2024-02-16T20:15:26;6.90;;;4.67;;
28311;SDS011;15572;48.810;9.148;2024-02-16T20:20:25;7.73;;;4.83;;
28311;SDS011;15572;48.810;9.148;2024-02-16T20:25:21;9.27;;;4.97;;
28311;SDS011;15572;48.810;9.148;2024-02-16T20:30:19;8.03;;;5.17;;
28311;SDS011;15572;48.810;9.148;2024-02-16T20:35:16;10.23;;;5.53;;
28311;SDS011;15572;48.810;9.148;2024-02-16T20:40:12;12.17;;;6.10;;
28311;SDS011;15572;48.810;9.148;2024-02-16T20:45:09;7.03;;;5.60;;
28311;SDS011;15572;48.810;9.148;2024-02-16T20:50:11;9.93;;;5.63;;
28311;SDS011;15572;48.810;9.148;2024-02-16T20:55:07;8.33;;;5.40;;
28311;SDS011;15572;48.810;9.148;2024-02-16T21:00:05;11.80;;;6.37;;
28311;SDS011;15572;48.810;9.148;2024-02-16T21:05:06;9.13;;;6.17;;
28311;SDS011;15572;48.810;9.148;2024-02-16T21:10:05;10.27;;;6.80;;
28311;SDS011;15572;48.810;9.148;2024-02-16T21:15:02;9.60;;;6.20;;
28311;SDS011;15572;48.810;9.148;2024-02-16T21:19:59;13.27;;;6.87;;
28311;SDS011;15572;48.810;9.148;2024-02-16T21:24:56;9.30;;;6.77;;
28311;SDS011;15572;48.810;9.148;2024-02-16T21:29:54;10.57;;;6.37;;
28311;SDS011;15572;48.810;9.148;2024-02-16T21:34:50;9.13;;;6.43;;
28311;SDS011;15572;48.810;9.148;2024-02-16T21:39:47;11.90;;;7.20;;
28311;SDS011;15572;48.810;9.148;2024-02-16T21:44:44;11.87;;;7.43;;
28311;SDS011;15572;48.810;9.148;2024-02-16T21:49:42;13.80;;;8.47;;
28311;SDS011;15572;48.810;9.148;2024-02-16T21:54:38;11.73;;;8.73;;
28311;SDS011;15572;48.810;9.148;2024-02-16T21:59:35;13.03;;;7.93;;
28311;SDS011;15572;48.810;9.148;2024-02-16T22:04:31;10.87;;;7.97;;
28311;SDS011;15572;48.810;9.148;2024-02-16T22:09:29;10.90;;;7.93;;
28311;SDS011;15572;48.810;9.148;2024-02-16T22:14:25;10.43;;;7.87;;
28311;SDS011;15572;48.810;9.148;2024-02-16T22:19:22;12.90;;;9.07;;
28311;SDS011;15572;48.810;9.148;2024-02-16T22:24:21;11.77;;;9.53;;
28311;SDS011;15572;48.810;9.148;2024-02-16T22:29:19;14.73;;;9.80;;
28311;SDS011;15572;48.810;9.148;2024-02-16T22:34:15;13.60;;;9.87;;
28311;SDS011;15572;48.810;9.148;2024-02-16T22:39:11;13.63;;;10.00;;
28311;SDS011;15572;48.810;9.148;2024-02-16T22:44:08;18.57;;;11.47;;
28311;SDS011;15572;48.810;9.148;2024-02-16T22:49:06;14.87;;;10.20;;
28311;SDS011;15572;48.810;9.148;2024-02-16T22:54:03;14.60;;;9.50;;
28311;SDS011;15572;48.810;9.148;2024-02-16T22:58:59;14.97;;;9.33;;
28311;SDS011;15572;48.810;9.148;2024-02-16T23:03:56;15.67;;;10.03;;
28311;SDS011;15572;48.810;9.148;2024-02-16T23:08:53;13.20;;;9.20;;
28311;SDS011;15572;48.810;9.148;2024-02-16T23:13:50;15.00;;;9.30;;
28311;SDS011;15572;48.810;9.148;2024-02-16T23:18:47;11.43;;;8.67;;
28311;SDS011;15572;48.810;9.148;2024-02-16T23:23:43;12.43;;;8.27;;
28311;SDS011;15572;48.810;9.148;2024-02-16T23:28:41;14.57;;;9.07;;
28311;SDS011;15572;48.810;9.148;2024-02-16T23:33:37;12.57;;;8.27;;
28311;SDS011;15572;48.810;9.148;2024-02-16T23:38:33;13.13;;;7.03;;
28311;SDS011;15572;48.810;9.148;2024-02-16T23:43:30;9.40;;;6.10;;
28311;SDS011;15572;48.810;9.148;2024-02-16T23:48:28;12.03;;;7.33;;
28311;SDS011;15572;48.810;9.148;2024-02-16T23:53:24;9.57;;;6.50;;
28311;SDS011;15572;48.810;9.148;2024-02-16T23:58:20;9.20;;;6.53;;
